Time;durP1;ratioP1;P1;durP2;ratioP2;P2;SDS_P1;SDS_P2;PMS_P1;PMS_P2;Temp;Humidity;BMP_temperature;BMP_pressure;BME280_temperature;BME280_humidity;BME280_pressure;Samples;Min_cycle;Max_cycle;Signal;HPM_P1;HPM_P2
2022/11/23 00:01:22;;;;;;;68.05;5.38;;;8.90;99.90;;;;;;5039414;28;20177;-85
2022/11/23 00:03:50;;;;;;;65.55;4.53;;;8.90;99.90;;;;;;5039156;28;20168;-85
2022/11/23 00:06:16;;;;;;;64.70;4.65;;;8.90;99.90;;;;;;5039308;28;20210;-85
2022/11/23 00:08:42;;;;;;;64.57;4.45;;;8.90;99.90;;;;;;5046386;28;20176;-86
2022/11/23 00:11:14;;;;;;;69.88;5.15;;;9.00;99.90;;;;;;5039473;28;20176;-85
2022/11/23 00:13:40;;;;;;;66.03;4.45;;;9.00;99.90;;;;;;5036680;28;20165;-85
2022/11/23 00:16:07;;;;;;;66.30;5.05;;;9.00;99.90;;;;;;5038037;28;20165;-85
2022/11/23 00:18:33;;;;;;;66.50;4.38;;;9.00;99.90;;;;;;5038765;28;20185;-85
2022/11/23 00:20:59;;;;;;;63.97;4.47;;;9.00;99.90;;;;;;5037376;28;20181;-84
2022/11/23 00:23:25;;;;;;;65.10;4.70;;;9.00;99.90;;;;;;5037829;28;20905;-85
2022/11/23 00:25:50;;;;;;;66.70;4.03;;;9.00;99.90;;;;;;5039116;28;20627;-85
2022/11/23 00:28:16;;;;;;;65.67;4.40;;;9.10;99.90;;;;;;5042898;28;20172;-85
2022/11/23 00:30:46;;;;;;;68.53;4.37;;;9.10;99.90;;;;;;5040562;28;20208;-84
2022/11/23 00:33:12;;;;;;;66.60;4.75;;;9.00;99.90;;;;;;5041048;28;20184;-85
2022/11/23 00:35:41;;;;;;;66.10;6.33;;;9.00;99.90;;;;;;5041391;28;20165;-85
2022/11/23 00:38:06;;;;;;;64.80;4.35;;;9.10;99.90;;;;;;5041507;28;20162;-86
2022/11/23 00:40:32;;;;;;;66.57;4.07;;;9.00;99.90;;;;;;5045016;28;20197;-87
2022/11/23 00:42:58;;;;;;;64.67;4.43;;;9.00;99.90;;;;;;5045312;28;20686;-85
2022/11/23 00:45:23;;;;;;;64.37;4.37;;;9.00;99.90;;;;;;5046182;28;20665;-86
2022/11/23 00:47:49;;;;;;;65.63;4.77;;;9.10;99.90;;;;;;5046208;28;20260;-85
2022/11/23 00:50:15;;;;;;;65.33;4.20;;;9.10;99.90;;;;;;5045418;28;20197;-85
2022/11/23 00:52:41;;;;;;;66.25;4.63;;;9.10;99.90;;;;;;5045686;28;20200;-86
2022/11/23 00:55:07;;;;;;;65.53;4.70;;;9.10;99.90;;;;;;5045204;28;20169;-85
2022/11/23 00:57:33;;;;;;;64.05;4.10;;;9.10;99.90;;;;;;5047719;28;20169;-85
2022/11/23 00:59:59;;;;;;;65.20;4.15;;;9.10;99.90;;;;;;5046960;28;20342;-84
2022/11/23 01:02:25;;;;;;;66.85;4.35;;;9.10;99.90;;;;;;5043957;28;20165;-85
2022/11/23 01:04:51;;;;;;;64.77;5.20;;;9.10;99.90;;;;;;5043041;28;20233;-86
2022/11/23 01:07:16;;;;;;;66.33;4.80;;;9.20;99.90;;;;;;5043990;28;20165;-85
2022/11/23 01:09:42;;;;;;;65.20;5.10;;;9.10;99.90;;;;;;5041715;28;20251;-85
2022/11/23 01:12:08;;;;;;;67.70;4.50;;;9.20;99.90;;;;;;5043489;28;20222;-85
2022/11/23 01:14:33;;;;;;;66.20;5.27;;;9.20;99.90;;;;;;5043418;28;20161;-85
2022/11/23 01:16:59;;;;;;;65.47;5.60;;;9.20;99.90;;;;;;5043524;28;20168;-85
2022/11/23 01:19:25;;;;;;;64.70;5.50;;;9.20;99.90;;;;;;5043964;28;20201;-85
2022/11/23 01:21:50;;;;;;;64.60;5.20;;;9.20;99.90;;;;;;5043914;28;20161;-85
2022/11/23 01:24:21;;;;;;;64.57;4.80;;;9.20;99.90;;;;;;5043071;28;20487;-85
2022/11/23 01:26:51;;;;;;;64.10;3.97;;;9.10;99.90;;;;;;5043695;28;20203;-85
2022/11/23 01:29:17;;;;;;;65.07;4.75;;;9.10;99.90;;;;;;5041786;28;20227;-85
2022/11/23 01:31:43;;;;;;;65.03;5.10;;;9.00;99.90;;;;;;5043082;28;20570;-85
2022/11/23 01:34:11;;;;;;;69.63;4.60;;;9.10;99.90;;;;;;5041364;28;20176;-85
2022/11/23 01:36:37;;;;;;;68.20;4.63;;;9.10;99.90;;;;;;5042887;28;20169;-85
2022/11/23 01:39:04;;;;;;;64.53;4.57;;;9.10;99.90;;;;;;5042179;28;20193;-84
2022/11/23 01:41:34;;;;;;;64.13;4.82;;;9.10;99.90;;;;;;5042388;28;20165;-85
2022/11/23 01:44:00;;;;;;;69.18;4.90;;;9.10;99.90;;;;;;5042808;28;20192;-85
2022/11/23 01:46:25;;;;;;;67.72;4.82;;;9.10;99.90;;;;;;5041124;28;20239;-85
2022/11/23 01:48:51;;;;;;;64.87;4.50;;;9.10;99.90;;;;;;5042783;28;20161;-85
2022/11/23 01:51:22;;;;;;;67.60;5.10;;;9.10;99.90;;;;;;5041644;28;20192;-85
2022/11/23 01:53:51;;;;;;;67.18;4.95;;;9.00;99.90;;;;;;5040226;28;20188;-85
2022/11/23 01:56:21;;;;;;;66.53;5.60;;;9.00;99.90;;;;;;5041419;28;20154;-85
2022/11/23 01:58:51;;;;;;;65.22;5.30;;;9.00;99.90;;;;;;5041917;28;20146;-85
2022/11/23 02:01:17;;;;;;;65.50;4.93;;;9.10;99.90;;;;;;5041397;28;20235;-85
2022/11/23 02:03:46;;;;;;;67.40;5.07;;;9.00;99.90;;;;;;5040354;28;20666;-85
2022/11/23 02:06:18;;;;;;;70.28;5.60;;;9.00;99.90;;;;;;5041666;28;20164;-85
2022/11/23 02:08:45;;;;;;;66.78;4.80;;;9.00;99.90;;;;;;5040250;28;20710;-85
2022/11/23 02:11:13;;;;;;;66.70;5.60;;;8.90;99.90;;;;;;5040083;28;20280;-85
2022/11/23 02:13:39;;;;;;;69.88;5.03;;;9.00;99.90;;;;;;5040906;28;20244;-86
2022/11/23 02:16:05;;;;;;;64.88;4.63;;;9.00;99.90;;;;;;5041140;28;20176;-85
2022/11/23 02:18:34;;;;;;;67.17;5.77;;;9.10;99.90;;;;;;5041038;28;20249;-85
2022/11/23 02:21:01;;;;;;;68.60;5.90;;;9.10;99.90;;;;;;5040607;28;20562;-85
2022/11/23 02:23:48;;;;;;;67.90;5.35;;;9.10;99.90;;;;;;5040908;28;20161;-85
2022/11/23 02:26:24;;;;;;;66.38;4.80;;;9.10;99.90;;;;;;5040189;28;20166;-86
2022/11/23 02:29:22;;;;;;;67.05;4.38;;;9.10;99.90;;;;;;5040065;28;20164;-84
2022/11/23 02:31:48;;;;;;;66.97;4.88;;;9.10;99.90;;;;;;5041288;28;20614;-84
2022/11/23 02:34:15;;;;;;;66.03;4.97;;;9.00;99.90;;;;;;5039956;28;20577;-85
2022/11/23 02:36:44;;;;;;;68.55;5.40;;;9.10;99.90;;;;;;5040855;28;20188;-85
2022/11/23 02:39:11;;;;;;;64.95;5.25;;;9.20;99.90;;;;;;5040598;28;20193;-85
2022/11/23 02:41:44;;;;;;;70.40;4.95;;;9.10;99.90;;;;;;5040878;28;20622;-85
2022/11/23 02:44:48;;;;;;;65.95;4.95;;;9.10;99.90;;;;;;5041124;28;20166;-85
2022/11/23 02:47:14;;;;;;;66.18;5.28;;;9.10;99.90;;;;;;5036943;28;20197;-85
2022/11/23 02:49:41;;;;;;;68.07;4.85;;;9.00;99.90;;;;;;5039301;28;20196;-84
2022/11/23 02:52:08;;;;;;;70.95;5.85;;;9.00;99.90;;;;;;5039403;28;20172;-85
2022/11/23 02:54:34;;;;;;;67.28;6.28;;;9.00;99.90;;;;;;5038782;28;20638;-85
2022/11/23 02:57:00;;;;;;;68.55;6.03;;;9.00;99.90;;;;;;5039040;28;20165;-85
2022/11/23 02:59:25;;;;;;;70.57;5.50;;;9.00;99.90;;;;;;5040390;28;20208;-85
2022/11/23 03:01:51;;;;;;;69.47;5.63;;;8.90;99.90;;;;;;5040599;28;20154;-85
2022/11/23 03:04:17;;;;;;;68.90;6.03;;;8.90;99.90;;;;;;5040263;28;20980;-85
2022/11/23 03:06:43;;;;;;;68.53;5.33;;;8.90;99.90;;;;;;5039989;28;20408;-85
2022/11/23 03:09:09;;;;;;;67.37;5.50;;;8.90;99.90;;;;;;5039631;28;20657;-85
2022/11/23 03:11:35;;;;;;;70.40;5.00;;;8.80;99.90;;;;;;5039754;28;20211;-85
2022/11/23 03:14:00;;;;;;;68.30;5.00;;;8.90;99.90;;;;;;5040460;28;20161;-85
2022/11/23 03:16:26;;;;;;;66.57;5.90;;;8.90;99.90;;;;;;5040115;28;20165;-85
2022/11/23 03:18:53;;;;;;;68.20;5.60;;;8.90;99.90;;;;;;5038608;28;20169;-85
2022/11/23 03:21:18;;;;;;;70.18;5.82;;;8.90;99.90;;;;;;5040256;28;20205;-86
2022/11/23 03:23:44;;;;;;;67.40;5.60;;;8.90;99.90;;;;;;5040421;28;20223;-85
2022/11/23 03:26:10;;;;;;;69.70;5.50;;;8.90;99.90;;;;;;5039226;28;20201;-85
2022/11/23 03:28:35;;;;;;;64.60;5.50;;;8.80;99.90;;;;;;5039482;28;20176;-85
2022/11/23 03:31:01;;;;;;;70.00;5.40;;;8.80;99.90;;;;;;5039022;28;20432;-85
2022/11/23 03:33:27;;;;;;;67.80;5.10;;;8.80;99.90;;;;;;5040240;28;20214;-85
2022/11/23 03:35:53;;;;;;;66.00;4.53;;;8.80;99.90;;;;;;5039951;28;20412;-85
2022/11/23 03:38:19;;;;;;;72.63;5.23;;;8.80;99.90;;;;;;5040102;28;20173;-85
2022/11/23 03:40:45;;;;;;;68.40;6.25;;;8.80;99.90;;;;;;5039296;28;20224;-85
2022/11/23 03:43:12;;;;;;;65.85;4.80;;;8.80;99.90;;;;;;5039515;28;20655;-85
2022/11/23 03:45:38;;;;;;;68.65;5.70;;;8.70;99.90;;;;;;5038883;28;20192;-84
2022/11/23 03:48:04;;;;;;;65.53;5.20;;;8.70;99.90;;;;;;5022222;28;20527;-84
2022/11/23 03:50:30;;;;;;;67.90;4.68;;;8.70;99.90;;;;;;5038424;28;20213;-85
2022/11/23 03:52:56;;;;;;;67.90;5.07;;;8.70;99.90;;;;;;5038212;28;20177;-85
2022/11/23 03:55:22;;;;;;;69.80;5.07;;;8.70;99.90;;;;;;5039438;28;20165;-85
2022/11/23 03:57:48;;;;;;;65.75;5.15;;;8.70;99.90;;;;;;5039709;28;20917;-85
2022/11/23 04:00:14;;;;;;;67.28;4.80;;;8.70;99.90;;;;;;5038865;28;20211;-85
2022/11/23 04:02:41;;;;;;;71.70;7.65;;;8.70;99.90;;;;;;5039133;28;20161;-85
2022/11/23 04:05:08;;;;;;;65.55;5.22;;;8.70;99.90;;;;;;5038245;28;20188;-85
2022/11/23 04:07:33;;;;;;;70.20;5.20;;;8.70;99.90;;;;;;5039517;28;20596;-85
2022/11/23 04:09:59;;;;;;;66.77;5.00;;;8.70;99.90;;;;;;5037889;28;20205;-85
2022/11/23 04:12:25;;;;;;;69.40;5.90;;;8.70;99.90;;;;;;5037053;28;20177;-85
2022/11/23 04:14:51;;;;;;;65.53;5.80;;;8.70;99.90;;;;;;5039400;28;20180;-85
2022/11/23 04:17:17;;;;;;;65.55;5.05;;;8.70;99.90;;;;;;5038152;28;20439;-85
2022/11/23 04:19:42;;;;;;;67.00;4.60;;;8.70;99.90;;;;;;5043079;28;20196;-85
2022/11/23 04:22:08;;;;;;;65.03;4.97;;;8.70;99.90;;;;;;5042025;28;20419;-85
2022/11/23 04:24:34;;;;;;;67.60;5.03;;;8.70;99.90;;;;;;5042845;28;20157;-85
2022/11/23 04:26:59;;;;;;;67.47;5.30;;;8.60;99.90;;;;;;5042720;28;20816;-85
2022/11/23 04:29:25;;;;;;;68.87;4.90;;;8.60;99.90;;;;;;5043183;28;20704;-85
2022/11/23 04:31:51;;;;;;;72.73;5.27;;;8.70;99.90;;;;;;5042075;28;20662;-85
2022/11/23 04:34:16;;;;;;;73.67;4.63;;;8.70;99.90;;;;;;5043318;28;20219;-85
2022/11/23 04:36:42;;;;;;;66.30;5.43;;;8.60;99.90;;;;;;5042902;28;20165;-85
2022/11/23 04:39:11;;;;;;;65.90;5.03;;;8.60;99.90;;;;;;5043504;28;20193;-85
2022/11/23 04:41:37;;;;;;;68.22;5.00;;;8.60;99.90;;;;;;5043335;28;20166;-85
2022/11/23 04:44:03;;;;;;;67.80;5.03;;;8.60;99.90;;;;;;5041732;28;20596;-85
2022/11/23 04:46:34;;;;;;;69.55;4.60;;;8.60;99.90;;;;;;5041914;28;20499;-85
2022/11/23 04:49:00;;;;;;;65.22;4.22;;;8.50;99.90;;;;;;5042745;28;20669;-85
2022/11/23 04:51:26;;;;;;;74.13;6.33;;;8.60;99.90;;;;;;5041572;28;20193;-85
2022/11/23 04:53:51;;;;;;;67.70;5.47;;;8.70;99.90;;;;;;5042403;28;20446;-85
2022/11/23 04:56:17;;;;;;;66.07;5.03;;;8.60;99.90;;;;;;5041152;28;20169;-85
2022/11/23 04:58:43;;;;;;;74.00;7.27;;;8.60;99.90;;;;;;5041563;28;20169;-85
2022/11/23 05:01:08;;;;;;;68.90;4.57;;;8.60;99.90;;;;;;5041390;28;20196;-85
2022/11/23 05:03:34;;;;;;;70.40;5.10;;;8.60;99.90;;;;;;5042484;28;20169;-85
2022/11/23 05:06:01;;;;;;;69.37;5.17;;;8.60;99.90;;;;;;5042063;28;20200;-85
2022/11/23 05:08:28;;;;;;;66.35;5.18;;;8.70;99.90;;;;;;5040705;28;20162;-85
2022/11/23 05:10:56;;;;;;;65.88;5.53;;;8.60;99.90;;;;;;5040943;28;20609;-85
2022/11/23 05:13:23;;;;;;;68.63;5.40;;;8.60;99.90;;;;;;5042189;28;20546;-85
2022/11/23 05:15:48;;;;;;;72.10;5.50;;;8.60;99.90;;;;;;5042241;28;20677;-85
2022/11/23 05:18:14;;;;;;;67.40;6.60;;;8.60;99.90;;;;;;5042677;28;20177;-85
2022/11/23 05:20:40;;;;;;;71.23;5.20;;;8.60;99.90;;;;;;5040549;28;20216;-85
2022/11/23 05:23:07;;;;;;;70.50;6.00;;;8.60;99.90;;;;;;5041116;28;20187;-85
2022/11/23 05:25:32;;;;;;;65.25;4.80;;;8.60;99.90;;;;;;5042511;28;20158;-85
2022/11/23 05:27:58;;;;;;;67.87;5.30;;;8.50;99.90;;;;;;5042678;28;20231;-85
2022/11/23 05:30:24;;;;;;;68.43;5.87;;;8.50;99.90;;;;;;5040898;28;20191;-85
2022/11/23 05:32:49;;;;;;;69.77;5.63;;;8.50;99.90;;;;;;5042673;28;20169;-85
2022/11/23 05:35:15;;;;;;;67.60;6.43;;;8.50;99.90;;;;;;5042662;28;20508;-85
2022/11/23 05:37:41;;;;;;;70.03;6.23;;;8.40;99.90;;;;;;5041263;28;20169;-85
2022/11/23 05:40:07;;;;;;;69.97;6.87;;;8.40;99.90;;;;;;5042367;28;20452;-85
2022/11/23 05:42:33;;;;;;;67.85;6.32;;;8.40;99.90;;;;;;5040902;28;20921;-85
2022/11/23 05:44:59;;;;;;;69.10;6.80;;;8.40;99.90;;;;;;5040376;28;20173;-85
2022/11/23 05:47:24;;;;;;;65.70;4.80;;;8.50;99.90;;;;;;5119217;22;20225;-85
2022/11/23 05:49:50;;;;;;;65.97;5.00;;;8.50;99.90;;;;;;5043725;28;20213;-85
2022/11/23 05:52:17;;;;;;;66.20;4.70;;;8.50;99.90;;;;;;5045008;28;20169;-85
2022/11/23 05:54:42;;;;;;;72.25;5.10;;;8.50;99.90;;;;;;5045571;28;20655;-85
2022/11/23 05:57:14;;;;;;;70.87;5.57;;;8.50;99.90;;;;;;5043102;28;20177;-85
2022/11/23 05:59:40;;;;;;;69.25;5.57;;;8.40;99.90;;;;;;5043495;28;20197;-85
2022/11/23 06:02:05;;;;;;;67.83;5.57;;;8.50;99.90;;;;;;5044144;28;20173;-85
2022/11/23 06:04:31;;;;;;;69.50;6.17;;;8.50;99.90;;;;;;5044115;28;20161;-85
2022/11/23 06:06:59;;;;;;;68.80;5.87;;;8.50;99.90;;;;;;5043646;28;20633;-85
2022/11/23 06:09:28;;;;;;;72.82;6.40;;;8.50;99.90;;;;;;5042011;28;20216;-85
2022/11/23 06:11:54;;;;;;;66.57;5.43;;;8.40;99.90;;;;;;5042027;28;20166;-85
2022/11/23 06:14:19;;;;;;;66.90;5.95;;;8.40;99.90;;;;;;5042607;28;20177;-85
2022/11/23 06:16:45;;;;;;;66.37;6.10;;;8.40;99.90;;;;;;5043507;28;20169;-85
2022/11/23 06:19:11;;;;;;;70.57;7.20;;;8.40;99.90;;;;;;5043305;28;20187;-85
2022/11/23 06:21:39;;;;;;;67.40;7.63;;;8.40;99.90;;;;;;5041781;28;20169;-85
2022/11/23 06:24:05;;;;;;;68.25;5.50;;;8.40;99.90;;;;;;5041395;28;20203;-85
2022/11/23 06:26:31;;;;;;;66.30;6.43;;;8.40;99.90;;;;;;5042627;28;20173;-85
2022/11/23 06:29:02;;;;;;;65.97;6.30;;;8.30;99.90;;;;;;5043320;28;20410;-85
2022/11/23 06:31:28;;;;;;;65.75;5.80;;;8.30;99.90;;;;;;5042618;28;20951;-85
2022/11/23 06:33:54;;;;;;;66.50;5.40;;;8.40;99.90;;;;;;5042625;28;20157;-85
2022/11/23 06:36:19;;;;;;;69.63;5.37;;;8.50;99.90;;;;;;5042814;28;20185;-85
2022/11/23 06:38:45;;;;;;;67.20;5.30;;;8.50;99.90;;;;;;5042450;28;20604;-85
2022/11/23 06:41:11;;;;;;;69.37;4.20;;;8.50;99.90;;;;;;5039794;28;20181;-85
2022/11/23 06:43:36;;;;;;;67.57;5.90;;;8.50;99.90;;;;;;5040368;28;20184;-84
2022/11/23 06:46:05;;;;;;;67.10;5.13;;;8.50;99.90;;;;;;5040736;28;20283;-85
2022/11/23 06:48:31;;;;;;;64.97;4.90;;;8.60;99.90;;;;;;5041520;28;20271;-84
2022/11/23 06:51:00;;;;;;;68.63;5.70;;;8.60;99.90;;;;;;5041727;28;20193;-84
2022/11/23 06:53:27;;;;;;;69.57;5.90;;;8.70;99.90;;;;;;5042607;28;20206;-84
2022/11/23 06:55:57;;;;;;;70.68;4.85;;;8.70;99.90;;;;;;5041156;28;20165;-85
2022/11/23 06:58:23;;;;;;;75.00;5.60;;;8.70;99.90;;;;;;5042241;28;20153;-84
2022/11/23 07:00:49;;;;;;;70.00;5.00;;;8.70;99.90;;;;;;5041029;28;20204;-84
2022/11/23 07:03:20;;;;;;;67.17;5.93;;;8.70;99.90;;;;;;5040424;28;20169;-86
2022/11/23 07:05:46;;;;;;;77.63;6.40;;;8.70;99.90;;;;;;5040405;28;20307;-85
2022/11/23 07:08:12;;;;;;;70.50;5.80;;;8.70;99.90;;;;;;5040376;28;20189;-84
2022/11/23 07:10:38;;;;;;;67.30;6.57;;;8.70;99.90;;;;;;5039859;28;20185;-84
2022/11/23 07:13:05;;;;;;;68.93;7.00;;;8.60;99.90;;;;;;5044404;28;20435;-85
2022/11/23 07:15:31;;;;;;;72.18;6.43;;;8.50;99.90;;;;;;5043044;28;20177;-85
2022/11/23 07:17:57;;;;;;;72.22;6.18;;;8.50;99.90;;;;;;5039551;28;20223;-85
2022/11/23 07:20:23;;;;;;;76.43;7.23;;;8.40;99.90;;;;;;5039894;28;20193;-84
2022/11/23 07:23:01;;;;;;;68.85;6.07;;;8.40;99.90;;;;;;5038355;28;20193;-84
2022/11/23 07:25:28;;;;;;;67.75;5.78;;;8.50;99.90;;;;;;5040196;28;20153;-85
2022/11/23 07:27:58;;;;;;;66.50;5.57;;;8.50;99.90;;;;;;5040626;28;20244;-83
2022/11/23 07:30:26;;;;;;;71.53;6.80;;;8.40;99.90;;;;;;5038736;28;20182;-84
2022/11/23 07:32:52;;;;;;;69.30;5.90;;;8.30;99.90;;;;;;5037841;28;20197;-83
2022/11/23 07:35:19;;;;;;;75.45;8.88;;;8.20;99.90;;;;;;5037279;28;20215;-84
2022/11/23 07:37:45;;;;;;;70.38;6.25;;;8.30;99.90;;;;;;5038274;28;20173;-84
2022/11/23 07:40:12;;;;;;;71.93;7.40;;;8.20;99.90;;;;;;5037103;28;20208;-84
2022/11/23 07:42:37;;;;;;;76.35;7.13;;;8.20;99.90;;;;;;5037875;28;20260;-84
2022/11/23 07:45:05;;;;;;;69.97;6.73;;;8.20;99.90;;;;;;5040008;28;20188;-84
2022/11/23 07:47:31;;;;;;;71.13;7.80;;;8.20;99.90;;;;;;5039026;28;20463;-83
2022/11/23 07:49:57;;;;;;;68.95;6.85;;;8.10;99.90;;;;;;5038519;28;20189;-84
2022/11/23 07:52:23;;;;;;;73.80;6.73;;;8.10;99.90;;;;;;5038826;28;20187;-84
2022/11/23 07:54:48;;;;;;;71.53;7.80;;;8.00;99.90;;;;;;5039873;28;20212;-84
2022/11/23 07:57:14;;;;;;;68.40;5.30;;;8.10;99.90;;;;;;5041203;28;20149;-84
2022/11/23 07:59:40;;;;;;;75.13;6.60;;;8.00;99.90;;;;;;5039190;28;20626;-84
2022/11/23 08:02:08;;;;;;;70.87;6.07;;;8.10;99.90;;;;;;5039567;28;20688;-84
2022/11/23 08:04:34;;;;;;;69.47;5.38;;;8.10;99.90;;;;;;5040827;28;20446;-84
2022/11/23 08:07:01;;;;;;;67.80;6.00;;;8.10;99.90;;;;;;5039480;28;20565;-84
2022/11/23 08:09:27;;;;;;;72.80;6.63;;;8.10;99.90;;;;;;5040845;28;20254;-85
2022/11/23 08:11:52;;;;;;;67.77;6.37;;;8.10;99.90;;;;;;5040450;28;20531;-84
2022/11/23 08:14:18;;;;;;;66.83;5.17;;;8.10;99.90;;;;;;5040426;28;20169;-83
2022/11/23 08:16:47;;;;;;;68.73;5.27;;;8.10;99.90;;;;;;5040770;28;20169;-84
2022/11/23 08:19:16;;;;;;;69.30;5.80;;;8.10;99.90;;;;;;5040317;28;20185;-84
2022/11/23 08:21:42;;;;;;;72.45;5.63;;;8.10;99.90;;;;;;5039023;28;20192;-84
2022/11/23 08:24:08;;;;;;;69.13;7.18;;;8.10;99.90;;;;;;5040313;28;20248;-85
2022/11/23 08:26:34;;;;;;;80.93;6.40;;;8.20;99.90;;;;;;5039977;28;20197;-85
2022/11/23 08:28:59;;;;;;;71.27;6.50;;;8.20;99.90;;;;;;5039618;28;20161;-84
2022/11/23 08:31:28;;;;;;;72.23;5.97;;;8.20;99.90;;;;;;5038108;28;20543;-85
2022/11/23 08:33:54;;;;;;;93.10;6.70;;;8.30;99.90;;;;;;5037661;28;20248;-85
2022/11/23 08:36:19;;;;;;;71.43;6.20;;;8.30;99.90;;;;;;5037327;28;20588;-85
2022/11/23 08:38:45;;;;;;;71.77;5.30;;;8.30;99.90;;;;;;5037447;28;20543;-84
2022/11/23 08:41:11;;;;;;;75.88;6.38;;;8.40;99.90;;;;;;5036366;28;20205;-85
2022/11/23 08:43:37;;;;;;;67.60;5.60;;;8.40;99.90;;;;;;5038222;28;20169;-85
2022/11/23 08:46:03;;;;;;;68.27;5.60;;;8.50;99.90;;;;;;5038628;28;20467;-84
2022/11/23 08:48:29;;;;;;;75.15;5.22;;;8.50;99.90;;;;;;5038312;28;20176;-84
2022/11/23 08:50:58;;;;;;;73.53;6.30;;;8.50;99.90;;;;;;5037719;28;20605;-84
2022/11/23 08:53:24;;;;;;;70.90;5.80;;;8.50;99.90;;;;;;5036786;28;20409;-84
2022/11/23 08:55:50;;;;;;;67.37;5.70;;;8.50;99.90;;;;;;5038611;28;20506;-84
2022/11/23 08:58:15;;;;;;;73.70;5.80;;;8.60;99.90;;;;;;5038957;28;20404;-84
2022/11/23 09:00:41;;;;;;;69.83;5.50;;;8.60;99.90;;;;;;5037384;28;20201;-84
2022/11/23 09:03:06;;;;;;;67.93;5.50;;;8.60;99.90;;;;;;5037168;28;20195;-84
2022/11/23 09:05:32;;;;;;;73.50;5.17;;;8.70;99.90;;;;;;5042925;28;20169;-84
2022/11/23 09:08:01;;;;;;;67.57;5.53;;;8.60;99.90;;;;;;5041155;28;20547;-84
2022/11/23 09:10:27;;;;;;;68.60;4.70;;;8.70;99.90;;;;;;5042695;28;20185;-84
2022/11/23 09:12:53;;;;;;;70.40;5.90;;;8.70;99.90;;;;;;5043458;28;20599;-84
2022/11/23 09:15:19;;;;;;;71.77;6.50;;;8.80;99.90;;;;;;5042939;28;20170;-84
2022/11/23 09:17:45;;;;;;;71.75;6.40;;;8.90;99.90;;;;;;5041916;28;20384;-85
2022/11/23 09:20:11;;;;;;;74.40;6.83;;;9.00;99.90;;;;;;5041535;28;20303;-84
2022/11/23 09:22:37;;;;;;;70.70;6.53;;;9.00;99.90;;;;;;5042934;28;20200;-84
2022/11/23 09:25:04;;;;;;;82.77;6.63;;;9.10;99.90;;;;;;5043244;28;20550;-84
2022/11/23 09:27:29;;;;;;;70.55;6.18;;;9.10;99.90;;;;;;5041460;28;20415;-84
2022/11/23 09:29:55;;;;;;;73.67;5.77;;;9.20;99.90;;;;;;5042701;28;20188;-85
2022/11/23 09:32:21;;;;;;;70.23;4.50;;;9.20;99.90;;;;;;5041346;28;20169;-84
2022/11/23 09:34:46;;;;;;;72.00;5.27;;;9.30;99.90;;;;;;5042118;28;20161;-84
2022/11/23 09:37:13;;;;;;;72.60;5.40;;;9.40;99.90;;;;;;5041576;28;20177;-84
2022/11/23 09:39:39;;;;;;;80.18;5.22;;;9.40;99.90;;;;;;5043011;28;20201;-84
2022/11/23 09:42:12;;;;;;;69.70;4.43;;;9.30;99.90;;;;;;5042436;28;20574;-84
2022/11/23 09:45:05;;;;;;;75.50;4.90;;;9.20;99.90;;;;;;5041455;28;20165;-84
2022/11/23 09:47:34;;;;;;;76.30;5.95;;;9.30;99.90;;;;;;5040966;28;20181;-84
2022/11/23 09:50:33;;;;;;;74.70;4.80;;;9.20;99.60;;;;;;5040803;28;20235;-84
2022/11/23 09:53:05;;;;;;;70.45;4.57;;;9.30;99.90;;;;;;5042476;28;20488;-84
2022/11/23 09:55:44;;;;;;;71.95;4.43;;;9.40;98.80;;;;;;5043813;28;20160;-85
2022/11/23 09:58:16;;;;;;;72.30;4.97;;;9.40;96.60;;;;;;5041741;28;20161;-84
2022/11/23 10:01:01;;;;;;;71.95;4.68;;;9.50;95.00;;;;;;5039129;28;20283;-85
2022/11/23 10:03:36;;;;;;;69.03;4.00;;;9.50;93.50;;;;;;5040466;28;20169;-85
2022/11/23 10:06:25;;;;;;;72.00;4.80;;;9.50;93.40;;;;;;5039855;28;20296;-85
2022/11/23 10:09:28;;;;;;;70.55;4.38;;;9.50;92.40;;;;;;5039696;28;20187;-84
2022/11/23 10:12:11;;;;;;;71.20;6.38;;;9.60;92.60;;;;;;5040921;28;20197;-85
2022/11/23 10:14:56;;;;;;;72.43;4.75;;;9.70;94.30;;;;;;5040294;28;20648;-84
2022/11/23 10:17:56;;;;;;;69.57;4.45;;;9.70;92.00;;;;;;5040022;28;20177;-84
2022/11/23 10:20:55;;;;;;;77.30;4.60;;;9.60;90.20;;;;;;5041317;28;20208;-84
2022/11/23 10:23:23;;;;;;;70.90;4.85;;;9.60;84.40;;;;;;5040947;28;20269;-84
2022/11/23 10:25:51;;;;;;;69.30;4.30;;;9.60;84.80;;;;;;5042646;28;20165;-84
2022/11/23 10:28:19;;;;;;;71.85;3.88;;;9.60;86.50;;;;;;5040601;28;20603;-84
2022/11/23 10:31:14;;;;;;;71.75;5.05;;;9.60;78.00;;;;;;5042994;28;20189;-84
2022/11/23 10:33:43;;;;;;;73.07;3.95;;;9.60;76.50;;;;;;5041767;28;20188;-84
2022/11/23 10:36:12;;;;;;;71.22;4.25;;;9.70;76.40;;;;;;5040230;28;20165;-84
2022/11/23 10:38:38;;;;;;;68.68;4.25;;;9.80;70.80;;;;;;5040674;28;20165;-84
2022/11/23 10:41:15;;;;;;;67.70;4.30;;;10.00;60.80;;;;;;5041181;28;20228;-84
2022/11/23 10:44:04;;;;;;;67.20;3.75;;;10.20;57.50;;;;;;5041738;28;20404;-84
2022/11/23 10:46:38;;;;;;;69.15;3.42;;;10.20;50.40;;;;;;5040604;28;20188;-84
2022/11/23 10:49:16;;;;;;;67.28;4.47;;;10.30;44.40;;;;;;5040250;28;20169;-83
2022/11/23 10:52:04;;;;;;;69.28;4.53;;;10.20;47.80;;;;;;5039482;28;20539;-84
2022/11/23 10:54:45;;;;;;;67.78;4.03;;;10.30;51.80;;;;;;5037124;28;20602;-84
2022/11/23 10:57:33;;;;;;;71.22;3.83;;;10.30;50.40;;;;;;5041924;28;20158;-84
2022/11/23 11:00:14;;;;;;;70.30;4.20;;;10.20;51.80;;;;;;5038876;28;20209;-85
2022/11/23 11:02:45;;;;;;;72.47;4.40;;;10.30;54.90;;;;;;5038733;28;20231;-85
2022/11/23 11:05:32;;;;;;;72.75;3.65;;;10.20;53.30;;;;;;5038424;28;20207;-85
2022/11/23 11:08:11;;;;;;;68.15;3.88;;;10.30;46.60;;;;;;5039299;28;20161;-85
2022/11/23 11:10:43;;;;;;;68.85;3.40;;;10.30;46.50;;;;;;5038238;28;20208;-85
2022/11/23 11:13:44;;;;;;;66.05;4.13;;;10.40;40.70;;;;;;5039224;28;20173;-85
2022/11/23 11:16:21;;;;;;;66.97;3.30;;;10.40;39.90;;;;;;5037893;28;20661;-85
2022/11/23 11:18:47;;;;;;;67.85;3.78;;;10.30;43.10;;;;;;5037452;28;20177;-85
2022/11/23 11:21:22;;;;;;;70.15;4.00;;;10.20;44.50;;;;;;5037172;28;20292;-84
2022/11/23 11:23:59;;;;;;;68.40;4.38;;;10.20;48.80;;;;;;5038298;28;20161;-84
2022/11/23 11:26:27;;;;;;;70.40;3.95;;;10.20;52.90;;;;;;5038696;28;20146;-84
2022/11/23 11:29:00;;;;;;;66.07;4.15;;;10.20;55.80;;;;;;5040403;28;20177;-84
2022/11/23 11:32:09;;;;;;;66.45;3.50;;;10.20;54.80;;;;;;5039199;28;20189;-85
2022/11/23 11:34:52;;;;;;;67.65;3.90;;;10.40;50.30;;;;;;5035378;28;20181;-85
2022/11/23 11:37:37;;;;;;;68.63;3.28;;;10.40;53.10;;;;;;5038697;28;20153;-85
2022/11/23 11:40:05;;;;;;;66.65;3.63;;;10.50;49.30;;;;;;5037833;28;20705;-85
2022/11/23 11:42:45;;;;;;;74.05;3.95;;;10.60;48.20;;;;;;5038584;28;20235;-84
2022/11/23 11:48:11;;;;;;;68.35;3.92;;;10.60;46.60;;;;;;5126434;22;20745;-84
2022/11/23 11:50:51;;;;;;;66.75;3.25;;;10.60;44.60;;;;;;5029929;28;20208;-84
2022/11/23 11:53:38;;;;;;;70.95;4.72;;;10.70;46.90;;;;;;5040024;28;20161;-84
2022/11/23 11:56:17;;;;;;;68.88;3.58;;;10.60;41.60;;;;;;5039669;28;20160;-84
2022/11/23 11:58:53;;;;;;;69.72;4.40;;;10.70;41.70;;;;;;5040255;28;20179;-84
2022/11/23 12:01:34;;;;;;;68.00;3.47;;;10.70;43.90;;;;;;5040210;28;20228;-84
2022/11/23 12:04:13;;;;;;;71.45;4.20;;;10.70;45.00;;;;;;5039960;28;20239;-84
2022/11/23 12:06:45;;;;;;;69.97;3.50;;;10.70;40.70;;;;;;5040442;28;20150;-84
2022/11/23 12:09:21;;;;;;;73.38;3.47;;;10.70;40.80;;;;;;5039470;28;20161;-84
2022/11/23 12:11:47;;;;;;;69.63;4.13;;;10.80;41.80;;;;;;5040024;28;20146;-84
2022/11/23 12:14:15;;;;;;;65.80;3.73;;;10.80;38.30;;;;;;5038606;28;20165;-85
2022/11/23 12:16:43;;;;;;;70.88;3.70;;;10.70;37.70;;;;;;5038424;28;20401;-85
2022/11/23 12:19:16;;;;;;;70.22;4.60;;;10.70;37.50;;;;;;5038161;28;20183;-84
2022/11/23 12:22:19;;;;;;;66.38;3.67;;;10.80;41.20;;;;;;5039892;28;20182;-84
2022/11/23 12:25:16;;;;;;;69.82;4.05;;;10.80;35.70;;;;;;5039592;28;20172;-86
2022/11/23 12:28:15;;;;;;;68.10;3.97;;;10.70;39.50;;;;;;5040764;28;20184;-84
2022/11/23 12:31:00;;;;;;;68.90;4.28;;;10.70;39.00;;;;;;5039208;28;20189;-86
2022/11/23 12:34:02;;;;;;;72.97;4.10;;;10.70;46.20;;;;;;5042306;28;20428;-85
2022/11/23 12:36:36;;;;;;;68.15;4.15;;;10.70;49.00;;;;;;5042332;28;20180;-85
2022/11/23 12:39:27;;;;;;;69.45;4.30;;;10.60;42.80;;;;;;5042269;28;20168;-85
2022/11/23 12:42:01;;;;;;;67.05;4.47;;;10.70;46.20;;;;;;5046098;28;20177;-85
2022/11/23 12:44:27;;;;;;;65.47;3.42;;;10.60;44.30;;;;;;5045575;28;20161;-86
2022/11/23 12:47:22;;;;;;;68.30;4.03;;;10.50;43.50;;;;;;5044041;28;20181;-85
2022/11/23 12:49:54;;;;;;;76.47;4.40;;;10.40;44.10;;;;;;5045058;28;20625;-85
2022/11/23 12:52:28;;;;;;;69.20;4.07;;;10.40;47.90;;;;;;5046317;28;20166;-85
2022/11/23 12:55:24;;;;;;;68.95;3.30;;;10.30;49.90;;;;;;5045132;28;20606;-85
2022/11/23 12:57:54;;;;;;;66.22;3.55;;;10.20;50.80;;;;;;5029629;28;20181;-85
2022/11/23 13:00:21;;;;;;;74.93;5.07;;;10.20;51.00;;;;;;5044309;28;20280;-85
2022/11/23 13:02:56;;;;;;;66.45;3.83;;;10.20;50.20;;;;;;5043568;28;20165;-85